Terminal Aerodrome Forecast
Issued by NWS New Orleans/Baton Rouge, LA

Home | Current Version | Previous Version | Text Only | Print | Product List | Glossary On
Versions: 1 2 3 4 5 6 7 8 9 10 11 12 13 14 15 16 17 18 19
000
FTUS44 KLIX 241732
TAFBTR
TAF
KBTR 241732Z 2418/2518 19012G15KT P6SM BKN025
     FM250200 25007KT P6SM OVC010
     FM250700 31008KT P6SM BKN040
     FM251500 35008KT P6SM SKC=

USA.gov is the U.S. government's official web portal to all federal, state and local government web resources and services.